This is the latest recevied weather packets stored in our database for station/object KO5MO-11. If no packets are shown the sender has not sent any weather packets the latest 10 day(s).
| Time | Temp. | Humidity | Pressure | Rain* | Wind** | Luminosity | Snow |
|---|---|---|---|---|---|---|---|
| 1777593655 | 25.56° C | 35% | 1002.7 hPa | - | - | 785 W/m² | - |
| 1777593055 | 25.56° C | 39% | 1002.7 hPa | - | - | 783 W/m² | - |
| 1777592455 | 23.89° C | 37% | 1002.7 hPa | - | - | 751 W/m² | - |
| 1777591855 | 23.89° C | 37% | 1002.8 hPa | - | - | 755 W/m² | - |
| 1777591255 | 24.44° C | 37% | 1003 hPa | - | - | 761 W/m² | - |
| 1777590655 | 26.11° C | 34% | 1003 hPa | - | - | 796 W/m² | - |
| 1777590055 | 25° C | 39% | 1003 hPa | - | - | 779 W/m² | - |
| 1777589455 | 23.89° C | 36% | 1003.3 hPa | - | - | 753 W/m² | - |
| 1777588855 | 23.89° C | 36% | 1003.3 hPa | - | - | 758 W/m² | - |
| 1777588255 | 25° C | 36% | 1003.6 hPa | - | - | 774 W/m² | - |
| 1777587655 | 26.67° C | 35% | 1003.7 hPa | - | - | 805 W/m² | - |
| 1777587056 | 23.89° C | 38% | 1003.8 hPa | - | - | 755 W/m² | - |
| 1777586456 | 23.89° C | 36% | 1004 hPa | - | - | 757 W/m² | - |
| 1777585855 | 24.44° C | 36% | 1004.2 hPa | - | - | 765 W/m² | - |
| 1777585255 | 26.67° C | 34% | 1004.4 hPa | - | - | 800 W/m² | - |
| 1777584655 | 25° C | 39% | 1004.6 hPa | - | - | 773 W/m² | - |
| 1777584055 | 23.89° C | 36% | 1004.7 hPa | - | - | 755 W/m² | - |
| 1777583455 | 23.89° C | 36% | 1004.8 hPa | - | - | 758 W/m² | - |
| 1777582855 | 25° C | 35% | 1005 hPa | - | - | 772 W/m² | - |
| 1777582255 | 26.67° C | 34% | 1005 hPa | - | - | 809 W/m² | - |
| 1777581655 | 23.89° C | 39% | 1005.3 hPa | - | - | 759 W/m² | - |
| 1777581055 | 23.89° C | 36% | 1005.4 hPa | - | - | 755 W/m² | - |
| 1777580455 | 24.44° C | 36% | 1005.4 hPa | - | - | 763 W/m² | - |
| 1777579855 | 26.67° C | 34% | 1005.5 hPa | - | - | 800 W/m² | - |
| 1777579608 | 26.67° C | 35% | 1005.7 hPa | - | - | 801 W/m² | - |
* Rain since midnight (hover to see other rain measurements)
** Current wind speed in m/s (hover to see current wind gust speed)